createdAt,value
2018-05-24T00:00:13.236Z,1010.32
2018-05-24T00:01:13.285Z,1010.36
2018-05-24T00:02:13.150Z,1010.27
2018-05-24T00:03:13.135Z,1010.20
2018-05-24T00:04:13.165Z,1010.21
2018-05-24T00:05:13.205Z,1010.30
2018-05-24T00:06:13.134Z,1010.32
2018-05-24T00:07:13.213Z,1010.29
2018-05-24T00:08:13.208Z,1010.25
2018-05-24T00:09:13.181Z,1010.28
2018-05-24T00:10:13.212Z,1010.27
2018-05-24T00:11:13.214Z,1010.29
2018-05-24T00:12:13.273Z,1010.32
2018-05-24T00:13:13.252Z,1010.31
2018-05-24T00:14:13.215Z,1010.29
2018-05-24T00:15:13.216Z,1010.26
2018-05-24T00:16:13.196Z,1010.30
2018-05-24T00:17:13.191Z,1010.27
2018-05-24T00:18:13.180Z,1010.27
2018-05-24T00:19:13.235Z,1010.30
2018-05-24T00:20:13.254Z,1010.29
2018-05-24T00:21:13.351Z,1010.32
2018-05-24T00:22:13.240Z,1010.35
2018-05-24T00:23:13.253Z,1010.37
2018-05-24T00:24:13.241Z,1010.30
2018-05-24T00:25:13.129Z,1010.26
2018-05-24T00:26:13.146Z,1010.26
2018-05-24T00:27:13.181Z,1010.33
2018-05-24T00:28:13.207Z,1010.35
2018-05-24T00:29:13.246Z,1010.33
2018-05-24T00:30:13.190Z,1010.32
2018-05-24T00:31:13.225Z,1010.32
2018-05-24T00:32:13.182Z,1010.29
2018-05-24T00:33:13.209Z,1010.28
2018-05-24T00:34:13.163Z,1010.31
2018-05-24T00:35:13.262Z,1010.32
2018-05-24T00:36:13.247Z,1010.28
2018-05-24T00:37:13.193Z,1010.25
2018-05-24T00:38:13.150Z,1010.27
2018-05-24T00:39:13.226Z,1010.30
2018-05-24T00:40:13.260Z,1010.29
2018-05-24T00:41:13.274Z,1010.30
2018-05-24T00:42:13.255Z,1010.21
2018-05-24T00:43:13.271Z,1010.24
2018-05-24T00:44:13.234Z,1010.23
2018-05-24T00:45:13.259Z,1010.20
2018-05-24T00:46:13.274Z,1010.22
2018-05-24T00:47:13.172Z,1010.20
2018-05-24T00:48:13.216Z,1010.22
2018-05-24T00:49:13.295Z,1010.16
2018-05-24T00:50:13.218Z,1010.12
2018-05-24T00:51:13.444Z,1010.12
2018-05-24T00:52:13.274Z,1010.11
2018-05-24T00:53:13.242Z,1010.11
2018-05-24T00:54:13.266Z,1010.12
2018-05-24T00:55:13.181Z,1010.11
2018-05-24T00:56:13.146Z,1010.09
2018-05-24T00:57:13.240Z,1010.11
2018-05-24T00:58:13.281Z,1010.13
2018-05-24T00:59:13.167Z,1010.12
2018-05-24T01:00:13.241Z,1010.08
2018-05-24T01:01:13.209Z,1010.10
2018-05-24T01:02:13.165Z,1010.15
2018-05-24T01:03:13.208Z,1010.18
2018-05-24T01:04:13.171Z,1010.10
2018-05-24T01:05:13.249Z,1010.11
2018-05-24T01:06:13.154Z,1010.12
2018-05-24T01:07:13.219Z,1010.05
2018-05-24T01:08:13.253Z,1010.09
2018-05-24T01:09:13.209Z,1010.07
2018-05-24T01:10:13.288Z,1010.09
2018-05-24T01:11:13.216Z,1010.07
2018-05-24T01:12:13.174Z,1010.08
2018-05-24T01:13:13.282Z,1010.09
2018-05-24T01:14:13.175Z,1010.10
2018-05-24T01:15:13.213Z,1010.11
2018-05-24T01:16:13.289Z,1010.09
2018-05-24T01:17:13.290Z,1010.09
2018-05-24T01:18:13.293Z,1010.10
2018-05-24T01:19:13.215Z,1010.09
2018-05-24T01:20:13.176Z,1010.11
2018-05-24T01:21:13.256Z,1010.08
2018-05-24T01:22:13.300Z,1010.11
2018-05-24T01:23:13.256Z,1010.05
2018-05-24T01:24:13.177Z,1010.07
2018-05-24T01:25:13.256Z,1010.03
2018-05-24T01:26:13.203Z,1010.02
2018-05-24T01:27:13.275Z,1010.02
2018-05-24T01:28:13.258Z,1010.06
2018-05-24T01:29:13.287Z,1010.00
2018-05-24T01:30:13.183Z,1010.05
2018-05-24T01:31:13.261Z,1010.04
2018-05-24T01:32:13.255Z,1010.02
2018-05-24T01:33:13.216Z,1010.01
2018-05-24T01:34:13.170Z,1010.05
2018-05-24T01:35:13.261Z,1010.04
2018-05-24T01:36:13.216Z,1010.04
2018-05-24T01:37:13.219Z,1010.03
2018-05-24T01:38:13.191Z,1010.03
2018-05-24T01:39:13.226Z,1010.01
2018-05-24T01:40:13.172Z,1010.03
2018-05-24T01:41:13.180Z,1010.03
2018-05-24T01:42:13.215Z,1010.04
2018-05-24T01:43:13.271Z,1010.07
2018-05-24T01:44:13.273Z,1010.07
2018-05-24T01:45:13.243Z,1010.02
2018-05-24T01:46:13.246Z,1010.03
2018-05-24T01:47:13.244Z,1010.03
2018-05-24T01:48:13.276Z,1010.02
2018-05-24T01:49:13.301Z,1010.01
2018-05-24T01:50:13.281Z,1010.02
2018-05-24T01:51:13.197Z,1009.98
2018-05-24T01:52:13.201Z,1009.99
2018-05-24T01:53:13.198Z,1010.01
2018-05-24T01:54:13.320Z,1010.01
2018-05-24T01:55:13.184Z,1009.98
2018-05-24T01:56:13.264Z,1010.00
2018-05-24T01:57:13.280Z,1010.00
2018-05-24T01:58:13.289Z,1010.01
2018-05-24T01:59:13.268Z,1009.98
2018-05-24T02:00:13.284Z,1009.96
2018-05-24T02:01:13.310Z,1009.97
2018-05-24T02:02:13.320Z,1009.99
2018-05-24T02:03:13.185Z,1009.93
2018-05-24T02:04:13.310Z,1009.93
2018-05-24T02:05:13.307Z,1009.92
2018-05-24T02:06:13.191Z,1009.91
2018-05-24T02:07:13.191Z,1009.86
2018-05-24T02:08:13.267Z,1009.87
2018-05-24T02:09:13.290Z,1009.88
2018-05-24T02:10:17.766Z,1009.83
2018-05-24T02:11:13.253Z,1009.81
2018-05-24T02:12:13.291Z,1009.83
2018-05-24T02:13:13.291Z,1009.83
2018-05-24T02:14:13.324Z,1009.85
2018-05-24T02:15:13.252Z,1009.80
2018-05-24T02:16:13.292Z,1009.78
2018-05-24T02:17:13.296Z,1009.80
2018-05-24T02:18:13.333Z,1009.80
2018-05-24T02:19:13.294Z,1009.80
2018-05-24T02:20:13.297Z,1009.81
2018-05-24T02:21:13.256Z,1009.82
2018-05-24T02:22:13.219Z,1009.79
2018-05-24T02:23:13.330Z,1009.75
2018-05-24T02:24:13.237Z,1009.76
2018-05-24T02:25:13.231Z,1009.80
2018-05-24T02:26:13.301Z,1009.75
2018-05-24T02:27:13.231Z,1009.71
2018-05-24T02:28:13.303Z,1009.72
2018-05-24T02:29:13.319Z,1009.70
2018-05-24T02:30:13.239Z,1009.74
2018-05-24T02:31:13.346Z,1009.72
2018-05-24T02:32:13.270Z,1009.70
2018-05-24T02:33:13.236Z,1009.72
2018-05-24T02:34:13.298Z,1009.73
2018-05-24T02:35:13.222Z,1009.73
2018-05-24T02:36:13.211Z,1009.75
2018-05-24T02:37:13.232Z,1009.71
2018-05-24T02:38:13.306Z,1009.73
2018-05-24T02:39:13.180Z,1009.78
2018-05-24T02:40:13.304Z,1009.74
2018-05-24T02:41:13.248Z,1009.74
2018-05-24T02:42:13.206Z,1009.76
2018-05-24T02:43:13.313Z,1009.75
2018-05-24T02:44:13.342Z,1009.73
2018-05-24T02:45:13.279Z,1009.72
2018-05-24T02:46:13.211Z,1009.72
2018-05-24T02:47:13.313Z,1009.73
2018-05-24T02:48:13.314Z,1009.73
2018-05-24T02:49:13.318Z,1009.73
2018-05-24T02:50:13.216Z,1009.76
2018-05-24T02:51:13.222Z,1009.75
2018-05-24T02:52:13.315Z,1009.77
2018-05-24T02:53:13.339Z,1009.83
2018-05-24T02:54:13.224Z,1009.82
2018-05-24T02:55:13.316Z,1009.80
2018-05-24T02:56:13.289Z,1009.79
2018-05-24T02:57:13.349Z,1009.79
2018-05-24T02:58:13.278Z,1009.82
2018-05-24T02:59:13.350Z,1009.81
2018-05-24T03:00:13.232Z,1009.77
2018-05-24T03:01:13.359Z,1009.75
2018-05-24T03:02:13.342Z,1009.78
2018-05-24T03:03:13.357Z,1009.75
2018-05-24T03:04:13.221Z,1009.78
2018-05-24T03:05:13.213Z,1009.76
2018-05-24T03:06:13.283Z,1009.74
2018-05-24T03:07:13.319Z,1009.75
2018-05-24T03:08:13.213Z,1009.70
2018-05-24T03:09:13.284Z,1009.75
2018-05-24T03:10:13.195Z,1009.73
2018-05-24T03:11:13.276Z,1009.73
2018-05-24T03:12:13.255Z,1009.70
2018-05-24T03:13:13.235Z,1009.74
2018-05-24T03:14:13.283Z,1009.77
2018-05-24T03:15:13.273Z,1009.76
2018-05-24T03:16:13.362Z,1009.76
2018-05-24T03:17:13.240Z,1009.79
2018-05-24T03:18:13.241Z,1009.79
2018-05-24T03:19:13.254Z,1009.76
2018-05-24T03:20:13.336Z,1009.77
2018-05-24T03:21:13.343Z,1009.75
2018-05-24T03:22:13.379Z,1009.79
2018-05-24T03:23:13.257Z,1009.74
2018-05-24T03:24:13.258Z,1009.78
2018-05-24T03:25:13.332Z,1009.77
2018-05-24T03:26:13.328Z,1009.71
2018-05-24T03:27:13.305Z,1009.70
2018-05-24T03:28:13.274Z,1009.66
2018-05-24T03:29:13.335Z,1009.70
2018-05-24T03:30:13.333Z,1009.68
2018-05-24T03:31:13.373Z,1009.67
2018-05-24T03:32:13.327Z,1009.69
2018-05-24T03:33:13.246Z,1009.66
2018-05-24T03:34:13.279Z,1009.68
2018-05-24T03:35:13.476Z,1009.69
2018-05-24T03:36:13.369Z,1009.70
2018-05-24T03:37:13.310Z,1009.75
2018-05-24T03:38:13.285Z,1009.76
2018-05-24T03:39:13.249Z,1009.72
2018-05-24T03:40:13.304Z,1009.76
2018-05-24T03:41:13.382Z,1009.75
2018-05-24T03:42:13.323Z,1009.76
2018-05-24T03:43:13.369Z,1009.75
2018-05-24T03:44:13.304Z,1009.76
2018-05-24T03:45:13.320Z,1009.74
2018-05-24T03:46:13.316Z,1009.72
2018-05-24T03:47:13.335Z,1009.70
2018-05-24T03:48:13.289Z,1009.69
2018-05-24T03:49:13.360Z,1009.70
2018-05-24T03:50:13.383Z,1009.73
2018-05-24T03:51:13.354Z,1009.74
2018-05-24T03:52:13.269Z,1009.72
2018-05-24T03:53:13.330Z,1009.78
2018-05-24T03:54:13.292Z,1009.77
2018-05-24T03:55:13.289Z,1009.79
2018-05-24T03:56:13.357Z,1009.79
2018-05-24T03:57:13.359Z,1009.82
2018-05-24T03:58:13.313Z,1009.83
2018-05-24T03:59:13.291Z,1009.85
2018-05-24T04:00:13.357Z,1009.85
2018-05-24T04:01:13.299Z,1009.85
2018-05-24T04:02:13.359Z,1009.85
2018-05-24T04:03:13.310Z,1009.85
2018-05-24T04:04:13.341Z,1009.87
2018-05-24T04:05:13.387Z,1009.85
2018-05-24T04:06:13.416Z,1009.88
2018-05-24T04:07:13.347Z,1009.86
2018-05-24T04:08:13.381Z,1009.90
2018-05-24T04:09:13.341Z,1009.86
2018-05-24T04:10:13.369Z,1009.84
2018-05-24T04:11:13.427Z,1009.84
2018-05-24T04:12:13.404Z,1009.84
2018-05-24T04:13:13.336Z,1009.82
2018-05-24T04:14:13.330Z,1009.83
2018-05-24T04:15:13.339Z,1009.80
2018-05-24T04:16:13.336Z,1009.82
2018-05-24T04:17:13.477Z,1009.76
2018-05-24T04:18:13.374Z,1009.79
2018-05-24T04:19:13.411Z,1009.77
2018-05-24T04:20:13.309Z,1009.77
2018-05-24T04:21:13.280Z,1009.76
2018-05-24T04:22:13.269Z,1009.77
2018-05-24T04:23:13.349Z,1009.72
2018-05-24T04:24:13.409Z,1009.73
2018-05-24T04:25:13.393Z,1009.74
2018-05-24T04:26:13.336Z,1009.74
2018-05-24T04:27:13.404Z,1009.74
2018-05-24T04:28:13.349Z,1009.77
2018-05-24T04:29:13.401Z,1009.80
2018-05-24T04:30:13.341Z,1009.81
2018-05-24T04:31:13.345Z,1009.80
2018-05-24T04:32:13.382Z,1009.81
2018-05-24T04:33:13.409Z,1009.82
2018-05-24T04:34:13.313Z,1009.86
2018-05-24T04:35:13.382Z,1009.85
2018-05-24T04:36:13.414Z,1009.88
2018-05-24T04:37:13.314Z,1009.87
2018-05-24T04:38:13.315Z,1009.90
2018-05-24T04:39:13.382Z,1009.87
2018-05-24T04:40:13.385Z,1009.94
2018-05-24T04:41:13.324Z,1009.95
2018-05-24T04:42:13.385Z,1009.96
2018-05-24T04:43:13.399Z,1009.98
2018-05-24T04:44:13.418Z,1009.97
2018-05-24T04:45:13.372Z,1010.01
2018-05-24T04:46:13.520Z,1009.97
2018-05-24T04:47:13.365Z,1010.01
2018-05-24T04:48:13.390Z,1010.02
2018-05-24T04:49:13.365Z,1010.03
2018-05-24T04:50:13.427Z,1010.03
2018-05-24T04:51:13.291Z,1010.04
2018-05-24T04:52:13.343Z,1010.04
2018-05-24T04:53:13.363Z,1010.05
2018-05-24T04:54:13.332Z,1010.03
2018-05-24T04:55:13.398Z,1010.04
2018-05-24T04:56:13.332Z,1010.07
2018-05-24T04:57:13.359Z,1010.04
2018-05-24T04:58:13.331Z,1010.08
2018-05-24T04:59:13.398Z,1010.07
2018-05-24T05:00:13.398Z,1010.06
2018-05-24T05:01:13.327Z,1010.06
2018-05-24T05:02:13.361Z,1010.09
2018-05-24T05:03:13.399Z,1010.07
2018-05-24T05:04:13.305Z,1010.02
2018-05-24T05:05:13.299Z,1010.02
2018-05-24T05:07:13.399Z,1009.99
2018-05-24T05:08:13.358Z,1009.99
2018-05-24T05:09:13.362Z,1009.97
2018-05-24T05:10:13.321Z,1009.95
2018-05-24T05:11:13.428Z,1009.98
2018-05-24T05:12:13.386Z,1009.99
2018-05-24T05:13:13.444Z,1009.99
2018-05-24T05:14:13.428Z,1010.00
2018-05-24T05:15:13.444Z,1009.98
2018-05-24T05:16:13.332Z,1009.96
2018-05-24T05:17:13.373Z,1009.88
2018-05-24T05:18:13.405Z,1009.88
2018-05-24T05:19:13.307Z,1009.85
2018-05-24T05:20:13.430Z,1009.83
2018-05-24T05:21:13.374Z,1009.86
2018-05-24T05:22:13.410Z,1009.85
2018-05-24T05:23:13.593Z,1009.84
2018-05-24T05:24:13.416Z,1009.81
2018-05-24T05:25:13.466Z,1009.85
2018-05-24T05:26:13.347Z,1009.89
2018-05-24T05:27:13.413Z,1009.90
2018-05-24T05:28:13.413Z,1009.91
2018-05-24T05:29:13.352Z,1009.92
2018-05-24T05:30:13.422Z,1009.92
2018-05-24T05:31:13.420Z,1009.86
2018-05-24T05:32:13.418Z,1009.87
2018-05-24T05:33:13.351Z,1009.87
2018-05-24T05:34:13.368Z,1009.87
2018-05-24T05:35:13.297Z,1009.88
2018-05-24T05:36:13.305Z,1009.92
2018-05-24T05:37:13.354Z,1009.90
2018-05-24T05:38:13.477Z,1009.91
2018-05-24T05:39:13.378Z,1009.91
2018-05-24T05:40:13.407Z,1009.92
2018-05-24T05:41:13.345Z,1009.92
2018-05-24T05:42:13.357Z,1009.91
2018-05-24T05:43:13.412Z,1009.89
2018-05-24T05:44:13.382Z,1009.87
2018-05-24T05:45:13.441Z,1009.92
2018-05-24T05:46:13.399Z,1009.87
2018-05-24T05:47:13.431Z,1009.85
2018-05-24T05:48:13.406Z,1009.84
2018-05-24T05:49:13.406Z,1009.86
2018-05-24T05:50:13.403Z,1009.81
2018-05-24T05:51:13.458Z,1009.84
2018-05-24T05:52:13.403Z,1009.80
2018-05-24T05:53:13.468Z,1009.83
2018-05-24T05:54:13.362Z,1009.80
2018-05-24T05:55:13.434Z,1009.80
2018-05-24T05:56:13.365Z,1009.78
2018-05-24T05:57:13.364Z,1009.79
2018-05-24T05:58:13.433Z,1009.81
2018-05-24T05:59:13.437Z,1009.83
2018-05-24T06:00:13.398Z,1009.80
2018-05-24T06:01:13.373Z,1009.79
2018-05-24T06:02:13.372Z,1009.81
2018-05-24T06:03:13.440Z,1009.83
2018-05-24T06:04:13.398Z,1009.84
2018-05-24T06:05:13.346Z,1009.83
2018-05-24T06:06:13.465Z,1009.87
2018-05-24T06:07:13.367Z,1009.87
2018-05-24T06:08:13.442Z,1009.87
2018-05-24T06:09:13.476Z,1009.85
2018-05-24T06:10:13.487Z,1009.83
2018-05-24T06:11:13.405Z,1009.81
2018-05-24T06:12:13.427Z,1009.82
2018-05-24T06:13:13.406Z,1009.82
2018-05-24T06:14:13.470Z,1009.83
2018-05-24T06:15:13.484Z,1009.85
2018-05-24T06:16:13.462Z,1009.89
2018-05-24T06:17:13.421Z,1009.90
2018-05-24T06:18:13.407Z,1009.88
2018-05-24T06:19:13.369Z,1009.85
2018-05-24T06:20:13.348Z,1009.87
2018-05-24T06:21:13.469Z,1009.84
2018-05-24T06:22:13.351Z,1009.83
2018-05-24T06:23:13.481Z,1009.83
2018-05-24T06:24:13.310Z,1009.82
2018-05-24T06:25:13.350Z,1009.84
2018-05-24T06:26:13.324Z,1009.82
2018-05-24T06:27:13.401Z,1009.80
2018-05-24T06:28:13.358Z,1009.81
2018-05-24T06:29:13.350Z,1009.84
2018-05-24T06:30:13.348Z,1009.83
2018-05-24T06:31:13.381Z,1009.83
2018-05-24T06:32:13.442Z,1009.85
2018-05-24T06:33:13.418Z,1009.82
2018-05-24T06:34:13.465Z,1009.80
2018-05-24T06:35:13.493Z,1009.80
2018-05-24T06:36:13.479Z,1009.88
2018-05-24T06:37:13.456Z,1009.87
2018-05-24T06:38:13.464Z,1009.93
2018-05-24T06:39:13.430Z,1009.88
2018-05-24T06:40:13.498Z,1009.92
2018-05-24T06:41:13.494Z,1009.92
2018-05-24T06:42:13.499Z,1009.89
2018-05-24T06:43:13.367Z,1009.93
2018-05-24T06:44:13.398Z,1009.95
2018-05-24T06:45:13.465Z,1009.94
2018-05-24T06:46:13.406Z,1009.98
2018-05-24T06:47:13.466Z,1010.03
2018-05-24T06:48:13.485Z,1010.07
2018-05-24T06:49:13.428Z,1010.09
2018-05-24T06:50:13.467Z,1010.06
2018-05-24T06:51:13.401Z,1010.08
2018-05-24T06:52:13.363Z,1010.05
2018-05-24T06:53:13.403Z,1010.01
2018-05-24T06:54:13.473Z,1010.04
2018-05-24T06:55:13.406Z,1010.08
2018-05-24T06:56:13.420Z,1010.11
2018-05-24T06:57:13.405Z,1010.09
2018-05-24T06:58:13.402Z,1010.07
2018-05-24T06:59:13.473Z,1010.05
2018-05-24T07:00:13.475Z,1010.07
2018-05-24T07:01:13.406Z,1010.12
2018-05-24T07:02:13.480Z,1010.13
2018-05-24T07:03:13.478Z,1010.18
2018-05-24T07:04:13.493Z,1010.16
2018-05-24T07:05:13.475Z,1010.17
2018-05-24T07:06:13.449Z,1010.17
2018-05-24T07:07:13.459Z,1010.20
2018-05-24T07:08:13.421Z,1010.20
2018-05-24T07:09:13.500Z,1010.24
2018-05-24T07:10:13.418Z,1010.21
2018-05-24T07:11:13.504Z,1010.15
2018-05-24T07:12:13.380Z,1010.20
2018-05-24T07:13:13.486Z,1010.20
2018-05-24T07:14:13.530Z,1010.18
2018-05-24T07:15:13.497Z,1010.22
2018-05-24T07:16:13.426Z,1010.20
2018-05-24T07:17:13.443Z,1010.18
2018-05-24T07:18:13.502Z,1010.16
2018-05-24T07:19:13.459Z,1010.13
2018-05-24T07:20:13.390Z,1010.16
2018-05-24T07:21:13.487Z,1010.20
2018-05-24T07:22:13.410Z,1010.15
2018-05-24T07:23:13.492Z,1010.15
2018-05-24T07:24:13.492Z,1010.16
2018-05-24T07:25:13.445Z,1010.14
2018-05-24T07:26:13.471Z,1010.20
2018-05-24T07:27:13.447Z,1010.16
2018-05-24T07:28:13.444Z,1010.13
2018-05-24T07:29:13.489Z,1010.14
2018-05-24T07:30:13.447Z,1010.13
2018-05-24T07:31:13.463Z,1010.12
2018-05-24T07:32:13.515Z,1010.13
2018-05-24T07:33:13.450Z,1010.11
2018-05-24T07:35:13.398Z,1010.11
2018-05-24T07:36:13.433Z,1010.14
2018-05-24T07:37:13.425Z,1010.08
2018-05-24T07:38:13.421Z,1010.05
2018-05-24T07:39:13.365Z,1010.11
2018-05-24T07:40:13.365Z,1010.07
2018-05-24T07:41:13.423Z,1010.08
2018-05-24T07:42:13.451Z,1010.09
2018-05-24T07:43:13.464Z,1010.09
2018-05-24T07:44:13.380Z,1010.07
2018-05-24T07:45:13.414Z,1010.14
2018-05-24T07:46:13.477Z,1010.13
2018-05-24T07:47:13.474Z,1010.13
2018-05-24T07:48:13.546Z,1010.08
2018-05-24T07:49:13.482Z,1010.12
2018-05-24T07:50:13.546Z,1010.09
2018-05-24T07:51:13.528Z,1010.07
2018-05-24T07:52:13.494Z,1010.12
2018-05-24T07:53:13.486Z,1010.11
2018-05-24T07:54:13.488Z,1010.10
2018-05-24T07:55:13.406Z,1010.08
2018-05-24T07:56:13.374Z,1010.07
2018-05-24T07:57:13.356Z,1010.08
2018-05-24T07:58:13.319Z,1010.08
2018-05-24T07:59:13.323Z,1010.08
2018-05-24T08:00:13.307Z,1010.07
2018-05-24T08:01:13.374Z,1010.05
2018-05-24T08:02:13.484Z,1010.06
2018-05-24T08:03:13.305Z,1010.11
2018-05-24T08:04:13.333Z,1010.12
2018-05-24T08:05:13.476Z,1010.12
2018-05-24T08:06:13.484Z,1010.08
2018-05-24T08:07:13.487Z,1010.05
2018-05-24T08:08:13.518Z,1010.05
2018-05-24T08:09:13.420Z,1010.03
2018-05-24T08:10:13.545Z,1009.96
2018-05-24T08:11:13.457Z,1010.02
2018-05-24T08:12:13.490Z,1009.94
2018-05-24T08:13:13.545Z,1009.98
2018-05-24T08:14:13.548Z,1009.95
2018-05-24T08:15:13.526Z,1009.93
2018-05-24T08:16:13.527Z,1009.98
2018-05-24T08:17:13.524Z,1009.91
2018-05-24T08:18:13.416Z,1009.96
2018-05-24T08:19:13.469Z,1009.84
2018-05-24T08:20:13.528Z,1009.99
2018-05-24T08:21:13.453Z,1009.99
2018-05-24T08:22:13.533Z,1009.95
2018-05-24T08:23:13.528Z,1009.94
2018-05-24T08:24:13.525Z,1009.91
2018-05-24T08:25:13.566Z,1009.91
2018-05-24T08:26:13.493Z,1009.87
2018-05-24T08:27:13.487Z,1009.88
2018-05-24T08:28:13.549Z,1009.86
2018-05-24T08:29:13.453Z,1009.88
2018-05-24T08:30:13.502Z,1009.91
2018-05-24T08:31:13.536Z,1009.87
2018-05-24T08:32:13.456Z,1009.93
2018-05-24T08:33:13.548Z,1009.93
2018-05-24T08:34:13.459Z,1009.91
2018-05-24T08:35:13.647Z,1009.86
2018-05-24T08:36:13.569Z,1009.87
2018-05-24T08:37:13.512Z,1009.87
2018-05-24T08:38:13.460Z,1009.85
2018-05-24T08:39:13.573Z,1009.86
2018-05-24T08:40:13.541Z,1009.85
2018-05-24T08:41:13.443Z,1009.86
2018-05-24T08:42:13.546Z,1009.81
2018-05-24T08:43:13.559Z,1009.83
2018-05-24T08:44:13.562Z,1009.90
2018-05-24T08:45:13.483Z,1009.90
2018-05-24T08:46:13.470Z,1009.86
2018-05-24T08:47:13.658Z,1009.86
2018-05-24T08:48:13.582Z,1009.79
2018-05-24T08:49:13.589Z,1009.81
2018-05-24T08:50:13.523Z,1009.78
2018-05-24T08:51:13.622Z,1009.79
2018-05-24T08:52:13.562Z,1009.75
2018-05-24T08:53:13.551Z,1009.72
2018-05-24T08:54:13.512Z,1009.70
2018-05-24T08:55:13.552Z,1009.74
2018-05-24T08:56:13.546Z,1009.71
2018-05-24T08:57:13.510Z,1009.71
2018-05-24T08:58:13.571Z,1009.75
2018-05-24T08:59:13.592Z,1009.71
2018-05-24T09:00:13.520Z,1009.71
2018-05-24T09:01:13.547Z,1009.73
2018-05-24T09:02:13.456Z,1009.75
2018-05-24T09:03:13.468Z,1009.75
2018-05-24T09:04:13.593Z,1009.72
2018-05-24T09:05:13.531Z,1009.71
2018-05-24T09:06:13.603Z,1009.71
2018-05-24T09:07:13.519Z,1009.77
2018-05-24T09:08:13.522Z,1009.77
2018-05-24T09:09:13.589Z,1009.82
2018-05-24T09:10:13.589Z,1009.87
2018-05-24T09:11:13.518Z,1009.84
2018-05-24T09:12:13.539Z,1009.84
2018-05-24T09:13:13.582Z,1009.85
2018-05-24T09:14:13.570Z,1009.88
2018-05-24T09:15:13.564Z,1009.88
2018-05-24T09:16:13.492Z,1009.85
2018-05-24T09:17:13.561Z,1009.87
2018-05-24T09:18:13.564Z,1009.94
2018-05-24T09:19:13.498Z,1009.92
2018-05-24T09:20:13.629Z,1009.92
2018-05-24T09:21:13.498Z,1009.97
2018-05-24T09:22:13.575Z,1009.96
2018-05-24T09:23:13.596Z,1009.98
2018-05-24T09:24:13.567Z,1009.97
2018-05-24T09:25:13.500Z,1009.97
2018-05-24T09:26:13.502Z,1010.01
2018-05-24T09:27:13.503Z,1009.99
2018-05-24T09:28:13.574Z,1009.97
2018-05-24T09:29:13.608Z,1010.03
2018-05-24T09:30:13.506Z,1010.07
2018-05-24T09:31:13.582Z,1010.11
2018-05-24T09:32:13.509Z,1010.06
2018-05-24T09:33:13.507Z,1010.10
2018-05-24T09:34:13.672Z,1010.13
2018-05-24T09:35:13.541Z,1010.14
2018-05-24T09:36:13.621Z,1010.09
2018-05-24T09:37:13.604Z,1010.09
2018-05-24T09:38:13.610Z,1010.08
2018-05-24T09:39:13.533Z,1010.07
2018-05-24T09:40:13.613Z,1010.05
2018-05-24T09:41:13.579Z,1010.01
2018-05-24T09:42:13.648Z,1010.03
2018-05-24T09:43:13.604Z,1010.03
2018-05-24T09:44:13.541Z,1009.99
2018-05-24T09:45:13.507Z,1010.02
2018-05-24T09:46:13.481Z,1009.97
2018-05-24T09:47:13.616Z,1009.97
2018-05-24T09:48:13.603Z,1010.00
2018-05-24T09:49:13.584Z,1010.02
2018-05-24T09:50:13.609Z,1009.98
2018-05-24T09:51:13.579Z,1009.99
2018-05-24T09:52:13.621Z,1010.01
2018-05-24T09:53:13.558Z,1010.01
2018-05-24T09:54:13.550Z,1009.99
2018-05-24T09:55:13.555Z,1009.93
2018-05-24T09:56:13.591Z,1009.95
2018-05-24T09:57:13.591Z,1009.97
2018-05-24T09:58:13.520Z,1010.02
2018-05-24T09:59:13.593Z,1010.05
2018-05-24T10:00:13.524Z,1010.01
2018-05-24T10:01:13.594Z,1010.02
2018-05-24T10:02:13.525Z,1010.06
2018-05-24T10:03:13.611Z,1010.03
2018-05-24T10:04:13.522Z,1009.99
2018-05-24T10:05:13.623Z,1010.01
2018-05-24T10:06:13.563Z,1010.05
2018-05-24T10:07:13.558Z,1010.09
2018-05-24T10:08:13.566Z,1010.09
2018-05-24T10:09:13.636Z,1010.06
2018-05-24T10:10:13.636Z,1010.07
2018-05-24T10:11:13.635Z,1010.10
2018-05-24T10:12:13.634Z,1010.10
2018-05-24T10:13:13.619Z,1010.09
2018-05-24T10:14:13.564Z,1010.10
2018-05-24T10:15:13.632Z,1010.08
2018-05-24T10:16:13.667Z,1010.10
2018-05-24T10:17:13.605Z,1010.04
2018-05-24T10:18:13.575Z,1010.06
2018-05-24T10:19:13.643Z,1010.08
2018-05-24T10:20:13.580Z,1010.08
2018-05-24T10:21:13.633Z,1010.06
2018-05-24T10:22:13.579Z,1010.06
2018-05-24T10:23:13.647Z,1010.06
2018-05-24T10:24:13.578Z,1010.06
2018-05-24T10:25:13.529Z,1010.03
2018-05-24T10:26:13.642Z,1010.02
2018-05-24T10:27:13.579Z,1010.04
2018-05-24T10:28:13.516Z,1010.04
2018-05-24T10:29:13.588Z,1010.03
2018-05-24T10:30:13.630Z,1010.05
2018-05-24T10:31:13.649Z,1010.04
2018-05-24T10:32:13.657Z,1010.03
2018-05-24T10:33:13.651Z,1010.06
2018-05-24T10:34:13.638Z,1010.05
2018-05-24T10:35:13.539Z,1010.03
2018-05-24T10:36:13.534Z,1010.05
2018-05-24T10:37:13.543Z,1010.05
2018-05-24T10:38:13.635Z,1010.04
2018-05-24T10:39:13.651Z,1010.06
2018-05-24T10:40:13.556Z,1010.07
2018-05-24T10:41:13.656Z,1010.10
2018-05-24T10:42:13.520Z,1010.16
2018-05-24T10:43:13.594Z,1010.16
2018-05-24T10:44:13.582Z,1010.12
2018-05-24T10:45:13.546Z,1010.17
2018-05-24T10:46:13.576Z,1010.14
2018-05-24T10:47:13.525Z,1010.14
2018-05-24T10:48:13.617Z,1010.11
2018-05-24T10:49:13.553Z,1010.17
2018-05-24T10:50:13.494Z,1010.10
2018-05-24T10:51:13.558Z,1010.15
2018-05-24T10:52:13.522Z,1010.12
2018-05-24T10:53:13.557Z,1010.13
2018-05-24T10:54:13.549Z,1010.16
2018-05-24T10:55:13.621Z,1010.13
2018-05-24T10:56:13.625Z,1010.17
2018-05-24T10:57:13.564Z,1010.16
2018-05-24T10:58:13.686Z,1010.19
2018-05-24T10:59:13.668Z,1010.16
2018-05-24T11:00:13.553Z,1010.18
2018-05-24T11:01:13.557Z,1010.21
2018-05-24T11:02:13.652Z,1010.18
2018-05-24T11:03:13.628Z,1010.19
2018-05-24T11:04:13.538Z,1010.19
2018-05-24T11:05:13.633Z,1010.16
2018-05-24T11:06:13.626Z,1010.15
2018-05-24T11:07:13.596Z,1010.15
2018-05-24T11:08:13.574Z,1010.14
2018-05-24T11:09:13.569Z,1010.11
2018-05-24T11:10:13.640Z,1010.05
2018-05-24T11:11:13.599Z,1010.10
2018-05-24T11:12:13.642Z,1010.07
2018-05-24T11:13:13.568Z,1010.07
2018-05-24T11:14:13.565Z,1010.10
2018-05-24T11:15:13.595Z,1010.06
2018-05-24T11:16:13.656Z,1010.07
2018-05-24T11:17:13.588Z,1010.07
2018-05-24T11:18:13.499Z,1010.08
2018-05-24T11:19:13.544Z,1010.05
2018-05-24T11:20:13.499Z,1010.06
2018-05-24T11:21:13.502Z,1010.03
2018-05-24T11:22:13.501Z,1010.05
2018-05-24T11:23:13.502Z,1010.05
2018-05-24T11:24:13.595Z,1009.98
2018-05-24T11:25:13.638Z,1010.00
2018-05-24T11:26:13.667Z,1009.99
2018-05-24T11:27:13.634Z,1010.01
2018-05-24T11:28:13.675Z,1010.04
2018-05-24T11:29:13.610Z,1010.03
2018-05-24T11:30:13.611Z,1010.02
2018-05-24T11:31:13.575Z,1010.06
2018-05-24T11:32:13.674Z,1010.06
2018-05-24T11:33:13.651Z,1010.04
2018-05-24T11:34:13.614Z,1010.05
2018-05-24T11:35:13.691Z,1010.09
2018-05-24T11:36:13.574Z,1010.08
2018-05-24T11:37:13.734Z,1010.09
2018-05-24T11:38:13.655Z,1010.15
2018-05-24T11:39:13.675Z,1010.13
2018-05-24T11:40:13.621Z,1010.16
2018-05-24T11:41:13.629Z,1010.15
2018-05-24T11:42:13.756Z,1010.17
2018-05-24T11:43:13.702Z,1010.17
2018-05-24T11:44:13.677Z,1010.13
2018-05-24T11:45:13.586Z,1010.16
2018-05-24T11:46:13.694Z,1010.17
2018-05-24T11:47:13.622Z,1010.17
2018-05-24T11:48:13.562Z,1010.20
2018-05-24T11:49:13.583Z,1010.22
2018-05-24T11:50:13.677Z,1010.22
2018-05-24T11:51:13.601Z,1010.19
2018-05-24T11:52:13.703Z,1010.15
2018-05-24T11:53:13.640Z,1010.21
2018-05-24T11:54:13.681Z,1010.16
2018-05-24T11:55:13.702Z,1010.19
2018-05-24T11:56:13.634Z,1010.21
2018-05-24T11:57:13.667Z,1010.15
2018-05-24T11:58:13.685Z,1010.19
2018-05-24T11:59:13.671Z,1010.19
2018-05-24T12:00:13.627Z,1010.22
2018-05-24T12:01:13.632Z,1010.20
2018-05-24T12:02:13.652Z,1010.20
2018-05-24T12:03:13.694Z,1010.21
2018-05-24T12:04:13.702Z,1010.21
2018-05-24T12:05:13.709Z,1010.18
2018-05-24T12:06:13.712Z,1010.16
2018-05-24T12:07:13.714Z,1010.14